createdAt,value
2022-10-13T00:01:10.437Z,16.70
2022-10-13T00:02:42.726Z,11.35
2022-10-13T00:04:17.241Z,9.98
2022-10-13T00:05:51.949Z,10.13
2022-10-13T00:07:25.172Z,14.18
2022-10-13T00:09:00.430Z,12.15
2022-10-13T00:10:35.930Z,12.52
2022-10-13T00:12:09.165Z,8.73
2022-10-13T00:13:42.340Z,12.13
2022-10-13T00:15:15.738Z,13.82
2022-10-13T00:16:48.896Z,13.35
2022-10-13T00:18:21.197Z,16.15
2022-10-13T00:19:58.641Z,10.35
2022-10-13T00:21:31.904Z,12.73
2022-10-13T00:23:04.089Z,14.80
2022-10-13T00:24:37.622Z,12.18
2022-10-13T00:26:13.408Z,14.18
2022-10-13T00:27:45.537Z,9.25
2022-10-13T00:29:18.744Z,10.68
2022-10-13T00:30:52.136Z,13.98
2022-10-13T00:32:25.425Z,11.70
2022-10-13T00:34:00.441Z,13.20
2022-10-13T00:35:35.482Z,9.05
2022-10-13T00:37:09.176Z,8.95
2022-10-13T00:38:42.013Z,9.65
2022-10-13T00:40:15.171Z,10.48
2022-10-13T00:41:48.356Z,13.85
2022-10-13T00:43:23.467Z,10.90
2022-10-13T00:45:02.003Z,9.73
2022-10-13T00:46:37.378Z,14.55
2022-10-13T00:48:10.775Z,10.57
2022-10-13T00:49:42.930Z,10.82
2022-10-13T00:51:21.319Z,12.18
2022-10-13T00:52:57.369Z,9.38
2022-10-13T00:54:31.458Z,15.18
2022-10-13T00:56:06.442Z,12.15
2022-10-13T00:57:42.921Z,10.95
2022-10-13T00:59:23.194Z,11.15
2022-10-13T01:01:00.354Z,13.48
2022-10-13T01:02:38.035Z,9.52
2022-10-13T01:04:12.376Z,11.30
2022-10-13T01:05:46.953Z,15.82
2022-10-13T01:07:21.612Z,13.52
2022-10-13T01:08:55.175Z,12.02
2022-10-13T01:10:42.437Z,10.05
2022-10-13T01:12:30.421Z,9.27
2022-10-13T01:14:12.496Z,9.68
2022-10-13T01:15:54.409Z,9.23
2022-10-13T01:17:34.768Z,10.43
2022-10-13T01:19:22.559Z,6.53
2022-10-13T01:21:05.338Z,10.93
2022-10-13T01:22:57.030Z,9.60
2022-10-13T01:24:44.539Z,10.65
2022-10-13T01:26:43.894Z,13.77
2022-10-13T01:28:39.427Z,13.38
2022-10-13T01:30:17.432Z,12.60
2022-10-13T01:31:57.843Z,13.23
2022-10-13T01:33:40.807Z,10.73
2022-10-13T01:35:19.274Z,11.57
2022-10-13T01:36:58.068Z,11.63
2022-10-13T01:38:40.544Z,10.57
2022-10-13T01:40:19.786Z,10.43
2022-10-13T01:41:58.384Z,10.15
2022-10-13T01:43:37.727Z,8.98
2022-10-13T01:45:16.127Z,11.52
2022-10-13T01:46:52.721Z,10.07
2022-10-13T01:48:27.099Z,11.55
2022-10-13T01:50:01.520Z,11.18
2022-10-13T01:51:36.387Z,14.48
2022-10-13T01:53:10.076Z,9.55
2022-10-13T01:54:43.969Z,13.90
2022-10-13T01:56:16.208Z,16.38
2022-10-13T01:57:50.777Z,12.60
2022-10-13T01:59:26.106Z,12.98
2022-10-13T02:01:13.349Z,12.90
2022-10-13T02:02:58.423Z,10.48
2022-10-13T02:04:45.252Z,13.55
2022-10-13T02:06:24.110Z,11.68
2022-10-13T02:08:04.803Z,11.93
2022-10-13T02:09:50.810Z,17.20
2022-10-13T02:11:25.309Z,12.88
2022-10-13T02:13:02.609Z,10.85
2022-10-13T02:14:39.492Z,12.20
2022-10-13T02:16:14.418Z,11.18
2022-10-13T02:17:49.636Z,13.85
2022-10-13T02:19:23.647Z,11.35
2022-10-13T02:20:57.323Z,15.60
2022-10-13T02:22:38.037Z,13.70
2022-10-13T02:24:11.585Z,14.18
2022-10-13T02:25:45.750Z,14.23
2022-10-13T02:27:18.147Z,13.52
2022-10-13T02:28:51.605Z,16.52
2022-10-13T02:30:26.829Z,15.70
2022-10-13T02:32:00.278Z,17.88
2022-10-13T02:33:35.011Z,12.07
2022-10-13T02:35:09.019Z,10.55
2022-10-13T02:36:42.634Z,10.02
2022-10-13T02:38:16.024Z,11.93
2022-10-13T02:39:49.242Z,13.07
2022-10-13T02:41:23.107Z,85.55
2022-10-13T02:42:56.616Z,52.20
2022-10-13T02:44:28.835Z,18.33
2022-10-13T02:46:01.990Z,11.90
2022-10-13T02:47:35.289Z,10.43
2022-10-13T02:49:12.743Z,13.10
2022-10-13T02:50:45.964Z,11.30
2022-10-13T02:52:19.361Z,17.27
2022-10-13T02:53:52.826Z,13.25
2022-10-13T02:55:26.669Z,14.52
2022-10-13T02:57:02.375Z,11.73
2022-10-13T02:58:35.531Z,11.05
2022-10-13T03:00:09.242Z,12.20
2022-10-13T03:01:44.544Z,11.55
2022-10-13T03:03:19.041Z,17.15
2022-10-13T03:04:54.899Z,14.65
2022-10-13T03:06:28.178Z,15.27
2022-10-13T03:08:01.555Z,11.98
2022-10-13T03:09:33.923Z,12.07
2022-10-13T03:11:07.465Z,11.70
2022-10-13T03:12:40.635Z,13.90
2022-10-13T03:14:13.427Z,17.02
2022-10-13T03:15:47.695Z,12.73
2022-10-13T03:17:20.941Z,15.98
2022-10-13T03:18:53.183Z,16.23
2022-10-13T03:20:28.077Z,11.27
2022-10-13T03:22:00.204Z,67.50
2022-10-13T03:23:34.150Z,86.25
2022-10-13T03:25:08.483Z,22.98
2022-10-13T03:26:42.079Z,13.95
2022-10-13T03:28:15.230Z,19.10
2022-10-13T03:29:52.643Z,12.10
2022-10-13T03:31:26.151Z,12.70
2022-10-13T03:33:07.050Z,15.88
2022-10-13T03:34:40.223Z,162.95
2022-10-13T03:36:14.935Z,24.48
2022-10-13T03:37:48.817Z,18.98
2022-10-13T03:39:22.521Z,14.48
2022-10-13T03:40:55.728Z,12.35
2022-10-13T03:42:27.859Z,12.32
2022-10-13T03:44:01.756Z,15.35
2022-10-13T03:45:36.695Z,12.82
2022-10-13T03:47:09.949Z,12.63
2022-10-13T03:48:43.598Z,13.30
2022-10-13T03:50:16.780Z,14.23
2022-10-13T03:51:51.742Z,10.77
2022-10-13T03:53:24.371Z,11.85
2022-10-13T03:54:57.627Z,14.40
2022-10-13T03:56:31.023Z,15.90
2022-10-13T03:58:03.649Z,17.27
2022-10-13T03:59:37.226Z,13.85
2022-10-13T04:01:10.587Z,19.58
2022-10-13T04:02:50.263Z,12.52
2022-10-13T04:04:24.002Z,13.50
2022-10-13T04:06:02.963Z,12.55
2022-10-13T04:07:36.510Z,14.00
2022-10-13T04:09:18.147Z,11.88
2022-10-13T04:10:59.903Z,12.95
2022-10-13T04:12:33.152Z,18.40
2022-10-13T04:14:06.384Z,14.18
2022-10-13T04:15:39.268Z,16.35
2022-10-13T04:17:12.823Z,22.52
2022-10-13T04:18:45.657Z,18.63
2022-10-13T04:20:19.371Z,17.13
2022-10-13T04:21:52.692Z,19.98
2022-10-13T04:23:27.844Z,17.52
2022-10-13T04:25:01.035Z,20.13
2022-10-13T04:26:37.279Z,18.60
2022-10-13T04:28:12.789Z,19.38
2022-10-13T04:29:46.409Z,18.27
2022-10-13T04:31:19.416Z,27.05
2022-10-13T04:32:52.572Z,32.65
2022-10-13T04:34:25.825Z,32.13
2022-10-13T04:35:59.250Z,28.30
2022-10-13T04:37:32.428Z,25.02
2022-10-13T04:39:07.233Z,25.73
2022-10-13T04:40:41.443Z,21.42
2022-10-13T04:42:15.280Z,21.20
2022-10-13T04:43:48.305Z,29.08
2022-10-13T04:45:21.640Z,21.40
2022-10-13T04:46:55.867Z,24.55
2022-10-13T04:48:29.779Z,22.10
2022-10-13T04:50:02.923Z,22.67
2022-10-13T04:51:36.207Z,28.15
2022-10-13T04:53:09.377Z,22.17
2022-10-13T04:54:44.650Z,33.58
2022-10-13T04:56:18.432Z,38.53
2022-10-13T04:57:51.687Z,32.78
2022-10-13T04:59:24.856Z,25.63
2022-10-13T05:00:58.831Z,23.40
2022-10-13T05:02:32.080Z,30.13
2022-10-13T05:04:06.708Z,24.45
2022-10-13T05:05:42.331Z,32.67
2022-10-13T05:07:18.253Z,32.13
2022-10-13T05:08:52.725Z,29.00
2022-10-13T05:10:30.205Z,33.35
2022-10-13T05:12:07.606Z,37.97
2022-10-13T05:13:41.092Z,40.33
2022-10-13T05:15:14.296Z,43.60
2022-10-13T05:16:46.373Z,42.85
2022-10-13T05:18:21.524Z,40.85
2022-10-13T05:19:55.440Z,44.00
2022-10-13T05:21:30.292Z,67.05
2022-10-13T05:23:03.443Z,38.60
2022-10-13T05:24:37.623Z,63.42
2022-10-13T05:26:14.895Z,93.97
2022-10-13T05:27:48.026Z,85.38
2022-10-13T05:29:21.160Z,89.43
2022-10-13T05:30:54.417Z,54.92
2022-10-13T05:32:27.802Z,65.88
2022-10-13T05:34:01.722Z,64.65
2022-10-13T05:35:34.935Z,62.55
2022-10-13T05:37:08.198Z,173.10
2022-10-13T05:38:41.785Z,44.42
2022-10-13T05:40:15.461Z,83.25
2022-10-13T05:41:50.049Z,88.15
2022-10-13T05:43:26.670Z,34.67
2022-10-13T05:44:59.892Z,116.75
2022-10-13T05:46:33.544Z,64.65
2022-10-13T05:48:07.145Z,26.30
2022-10-13T05:49:41.052Z,69.78
2022-10-13T05:51:18.619Z,32.67
2022-10-13T05:52:52.988Z,36.38
2022-10-13T05:54:30.993Z,37.08
2022-10-13T05:56:08.836Z,43.20
2022-10-13T05:57:47.282Z,37.10
2022-10-13T05:59:26.787Z,22.23
2022-10-13T06:01:00.379Z,21.20
2022-10-13T06:02:38.118Z,19.50
2022-10-13T06:04:16.672Z,18.73
2022-10-13T06:05:50.467Z,20.23
2022-10-13T06:07:24.183Z,19.73
2022-10-13T06:08:57.453Z,21.33
2022-10-13T06:10:30.893Z,20.10
2022-10-13T06:12:04.181Z,21.88
2022-10-13T06:13:38.673Z,21.67
2022-10-13T06:15:12.388Z,17.63
2022-10-13T06:16:45.661Z,19.45
2022-10-13T06:18:18.882Z,24.80
2022-10-13T06:19:52.208Z,21.58
2022-10-13T06:21:25.489Z,21.88
2022-10-13T06:22:59.018Z,26.67
2022-10-13T06:24:32.296Z,28.08
2022-10-13T06:26:07.781Z,32.80
2022-10-13T06:27:42.559Z,41.97
2022-10-13T06:29:17.431Z,33.92
2022-10-13T06:30:56.583Z,20.38
2022-10-13T06:32:30.056Z,19.05
2022-10-13T06:34:03.293Z,19.88
2022-10-13T06:35:37.562Z,21.75
2022-10-13T06:37:11.441Z,23.55
2022-10-13T06:38:44.719Z,26.90
2022-10-13T06:40:18.298Z,18.63
2022-10-13T06:41:52.807Z,17.90
2022-10-13T06:43:39.595Z,17.08
2022-10-13T06:45:17.698Z,22.67
2022-10-13T06:46:51.002Z,27.73
2022-10-13T06:48:24.986Z,25.38
2022-10-13T06:49:58.171Z,25.33
2022-10-13T06:51:31.438Z,21.60
2022-10-13T06:53:04.641Z,25.50
2022-10-13T06:54:38.048Z,27.88
2022-10-13T06:56:11.605Z,30.77
2022-10-13T06:57:45.083Z,27.38
2022-10-13T06:59:18.485Z,31.02
2022-10-13T07:00:53.839Z,26.40
2022-10-13T07:02:27.163Z,30.27
2022-10-13T07:04:00.344Z,31.95
2022-10-13T07:05:33.947Z,35.80
2022-10-13T07:07:07.234Z,25.42
2022-10-13T07:08:40.495Z,28.23
2022-10-13T07:10:13.673Z,66.72
2022-10-13T07:11:46.920Z,27.70
2022-10-13T07:13:23.160Z,29.63
2022-10-13T07:14:56.427Z,30.38
2022-10-13T07:16:30.986Z,29.02
2022-10-13T07:18:04.181Z,32.28
2022-10-13T07:19:38.172Z,29.55
2022-10-13T07:21:11.360Z,28.83
2022-10-13T07:22:45.662Z,35.45
2022-10-13T07:24:20.527Z,30.15
2022-10-13T07:25:55.163Z,31.50
2022-10-13T07:27:29.010Z,30.20
2022-10-13T07:29:02.214Z,39.40
2022-10-13T07:30:35.391Z,43.03
2022-10-13T07:32:10.348Z,37.90
2022-10-13T07:33:45.449Z,37.58
2022-10-13T07:35:19.118Z,26.98
2022-10-13T07:36:52.237Z,29.67
2022-10-13T07:38:25.686Z,31.38
2022-10-13T07:40:00.512Z,24.48
2022-10-13T07:41:35.636Z,20.08
2022-10-13T07:43:09.046Z,23.42
2022-10-13T07:44:42.348Z,25.88
2022-10-13T07:46:16.764Z,25.10
2022-10-13T07:47:51.342Z,22.65
2022-10-13T07:49:24.759Z,20.20
2022-10-13T07:50:58.415Z,23.38
2022-10-13T07:52:31.794Z,26.77
2022-10-13T07:54:05.083Z,17.92
2022-10-13T07:55:39.577Z,23.70
2022-10-13T07:57:12.845Z,21.67
2022-10-13T07:58:48.239Z,24.48
2022-10-13T08:00:21.659Z,29.70
2022-10-13T08:01:54.864Z,24.33
2022-10-13T08:03:30.271Z,19.30
2022-10-13T08:05:04.613Z,23.55
2022-10-13T08:06:37.806Z,20.42
2022-10-13T08:08:14.941Z,20.02
2022-10-13T08:09:48.252Z,16.98
2022-10-13T08:11:21.440Z,18.17
2022-10-13T08:12:54.626Z,18.67
2022-10-13T08:14:27.937Z,19.98
2022-10-13T08:16:02.212Z,17.98
2022-10-13T08:17:35.490Z,14.32
2022-10-13T08:19:11.218Z,19.15
2022-10-13T08:20:46.136Z,14.75
2022-10-13T08:22:19.849Z,11.45
2022-10-13T08:23:53.057Z,9.75
2022-10-13T08:25:26.146Z,13.90
2022-10-13T08:26:59.388Z,15.43
2022-10-13T08:28:33.040Z,12.85
2022-10-13T08:30:07.194Z,14.45
2022-10-13T08:31:43.348Z,8.88
2022-10-13T08:33:16.719Z,13.43
2022-10-13T08:34:52.056Z,12.75
2022-10-13T08:36:25.331Z,15.85
2022-10-13T08:37:58.470Z,11.80
2022-10-13T08:39:32.726Z,12.48
2022-10-13T08:41:17.318Z,13.70
2022-10-13T08:42:51.175Z,14.07
2022-10-13T08:46:27.435Z,12.65
2022-10-13T08:48:03.716Z,10.88
2022-10-13T08:49:37.257Z,13.55
2022-10-13T08:51:16.183Z,12.00
2022-10-13T08:52:54.449Z,13.68
2022-10-13T08:54:28.047Z,15.60
2022-10-13T08:56:06.259Z,15.93
2022-10-13T08:57:41.462Z,16.42
2022-10-13T08:59:18.176Z,16.70
2022-10-13T09:00:58.835Z,18.55
2022-10-13T09:02:32.848Z,16.10
2022-10-13T09:04:17.984Z,15.20
2022-10-13T09:06:04.233Z,12.48
2022-10-13T09:07:41.194Z,12.23
2022-10-13T09:09:16.499Z,12.30
2022-10-13T09:10:51.854Z,17.20
2022-10-13T09:12:26.531Z,13.57
2022-10-13T09:14:02.395Z,12.13
2022-10-13T09:15:44.510Z,13.48
2022-10-13T09:17:22.727Z,25.33
2022-10-13T09:18:56.079Z,11.10
2022-10-13T09:20:29.210Z,10.50
2022-10-13T09:22:15.909Z,10.75
2022-10-13T09:23:53.986Z,10.85
2022-10-13T09:25:27.332Z,10.20
2022-10-13T09:27:07.219Z,10.95
2022-10-13T09:28:44.873Z,11.23
2022-10-13T09:30:37.254Z,10.80
2022-10-13T09:32:19.189Z,11.38
2022-10-13T09:34:00.538Z,9.55
2022-10-13T09:35:35.120Z,11.40
2022-10-13T09:37:19.154Z,12.70
2022-10-13T09:39:09.853Z,10.23
2022-10-13T09:40:45.157Z,10.45
2022-10-13T09:42:23.288Z,10.93
2022-10-13T09:44:10.107Z,8.15
2022-10-13T09:45:44.604Z,9.68
2022-10-13T09:47:22.518Z,16.83
2022-10-13T09:48:59.016Z,9.65
2022-10-13T09:50:34.483Z,13.25
2022-10-13T09:52:15.565Z,8.10
2022-10-13T09:53:49.353Z,8.60
2022-10-13T09:55:33.009Z,13.20
2022-10-13T09:57:15.854Z,11.73
2022-10-13T09:58:57.736Z,11.48
2022-10-13T10:00:31.756Z,16.58
2022-10-13T10:02:20.364Z,11.32
2022-10-13T10:03:58.318Z,10.40
2022-10-13T10:05:43.160Z,9.38
2022-10-13T10:07:22.139Z,8.82
2022-10-13T10:09:04.633Z,7.63
2022-10-13T10:10:42.236Z,9.70
2022-10-13T10:12:24.244Z,11.13
2022-10-13T10:14:03.871Z,8.15
2022-10-13T10:15:46.206Z,10.50
2022-10-13T10:17:28.343Z,7.25
2022-10-13T10:19:11.719Z,8.10
2022-10-13T10:21:02.054Z,9.98
2022-10-13T10:22:41.727Z,7.32
2022-10-13T10:24:24.843Z,7.13
2022-10-13T10:26:05.407Z,9.25
2022-10-13T10:27:44.069Z,9.95
2022-10-13T10:29:30.725Z,7.53
2022-10-13T10:31:14.760Z,4.75
2022-10-13T10:32:53.813Z,7.45
2022-10-13T10:34:41.489Z,4.28
2022-10-13T10:36:19.343Z,5.38
2022-10-13T10:38:13.593Z,7.32
2022-10-13T10:39:51.004Z,7.45
2022-10-13T10:41:41.825Z,8.68
2022-10-13T10:43:44.914Z,7.88
2022-10-13T10:45:24.280Z,4.47
2022-10-13T10:47:02.620Z,16.75
2022-10-13T10:48:39.098Z,4.82
2022-10-13T10:50:16.503Z,9.02
2022-10-13T10:51:51.329Z,21.60
2022-10-13T10:53:34.442Z,5.57
2022-10-13T10:55:19.627Z,9.15
2022-10-13T10:56:57.967Z,18.73
2022-10-13T10:58:43.273Z,8.48
2022-10-13T11:00:20.009Z,6.57
2022-10-13T11:02:06.343Z,10.30
2022-10-13T11:03:47.906Z,6.53
2022-10-13T11:05:21.564Z,9.52
2022-10-13T11:06:54.851Z,4.95
2022-10-13T11:08:30.180Z,12.68
2022-10-13T11:10:18.713Z,7.38
2022-10-13T11:11:52.089Z,8.35
2022-10-13T11:13:26.901Z,7.50
2022-10-13T11:15:12.820Z,8.68
2022-10-13T11:17:10.597Z,6.88
2022-10-13T11:19:25.843Z,4.85
2022-10-13T11:21:00.541Z,9.65
2022-10-13T11:22:33.689Z,5.30
2022-10-13T11:24:47.653Z,9.18
2022-10-13T11:26:33.134Z,5.22
2022-10-13T11:28:39.859Z,7.60
2022-10-13T11:30:51.070Z,5.88
2022-10-13T11:32:45.065Z,9.18
2022-10-13T11:34:30.379Z,4.38
2022-10-13T11:36:33.723Z,8.63
2022-10-13T11:38:30.754Z,6.43
2022-10-13T11:40:18.090Z,9.20
2022-10-13T11:41:58.653Z,4.93
2022-10-13T11:43:49.149Z,6.15
2022-10-13T11:45:38.003Z,5.95
2022-10-13T11:47:23.902Z,5.22
2022-10-13T11:49:30.451Z,5.07
2022-10-13T11:51:16.648Z,7.43
2022-10-13T11:53:02.641Z,9.23
2022-10-13T11:54:41.336Z,9.77
2022-10-13T11:56:21.458Z,13.25
2022-10-13T11:58:09.530Z,9.85
2022-10-13T11:59:47.916Z,5.78
2022-10-13T12:01:22.008Z,7.72
2022-10-13T12:02:56.821Z,9.02
2022-10-13T12:04:30.328Z,6.32
2022-10-13T12:06:06.138Z,7.78
2022-10-13T12:07:43.046Z,5.47
2022-10-13T12:09:19.962Z,7.10
2022-10-13T12:10:56.459Z,10.10
2022-10-13T12:12:30.247Z,10.18
2022-10-13T12:14:22.409Z,8.32
2022-10-13T12:16:03.144Z,9.27
2022-10-13T12:17:39.100Z,5.18
2022-10-13T12:19:22.437Z,9.20
2022-10-13T12:20:57.528Z,8.13
2022-10-13T12:22:30.929Z,3.58
2022-10-13T12:24:09.700Z,3.75
2022-10-13T12:25:49.315Z,7.45
2022-10-13T12:27:23.376Z,9.15
2022-10-13T12:28:58.538Z,9.02
2022-10-13T12:30:36.453Z,6.45
2022-10-13T12:32:20.838Z,11.63
2022-10-13T12:33:56.989Z,7.70
2022-10-13T12:35:33.399Z,5.75
2022-10-13T12:37:15.603Z,12.35
2022-10-13T12:38:51.703Z,5.95
2022-10-13T12:40:26.391Z,5.78
2022-10-13T12:42:02.001Z,5.75
2022-10-13T12:43:35.736Z,5.57
2022-10-13T12:45:16.019Z,7.30
2022-10-13T12:46:52.295Z,5.15
2022-10-13T12:48:31.256Z,7.35
2022-10-13T12:50:33.190Z,2.33
2022-10-13T12:52:14.563Z,4.88
2022-10-13T12:53:49.278Z,8.48
2022-10-13T12:55:24.175Z,15.27
2022-10-13T12:57:00.443Z,6.45
2022-10-13T12:58:35.923Z,8.43
2022-10-13T13:00:22.962Z,8.30
2022-10-13T13:02:02.287Z,7.50
2022-10-13T13:03:37.201Z,5.05
2022-10-13T13:05:32.247Z,6.55
2022-10-13T13:07:29.605Z,5.95
2022-10-13T13:09:24.732Z,4.95
2022-10-13T13:10:59.993Z,8.85
2022-10-13T13:12:33.410Z,8.75
2022-10-13T13:14:40.353Z,5.63
2022-10-13T13:16:18.367Z,5.03
2022-10-13T13:17:58.419Z,7.53
2022-10-13T13:19:33.579Z,4.57
2022-10-13T13:21:08.207Z,5.78
2022-10-13T13:22:42.808Z,6.72
2022-10-13T13:24:28.775Z,5.38
2022-10-13T13:26:15.305Z,3.42
2022-10-13T13:27:48.776Z,3.38
2022-10-13T13:29:23.059Z,5.30
2022-10-13T13:30:56.193Z,7.63
2022-10-13T13:32:31.058Z,5.47
2022-10-13T13:34:04.216Z,8.68
2022-10-13T13:35:38.878Z,6.18
2022-10-13T13:37:24.170Z,6.40
2022-10-13T13:38:58.797Z,4.65
2022-10-13T13:40:32.519Z,4.97
2022-10-13T13:42:05.953Z,6.20
2022-10-13T13:43:39.881Z,12.07
2022-10-13T13:45:14.464Z,4.70
2022-10-13T13:46:47.641Z,7.38
2022-10-13T13:48:21.061Z,5.35
2022-10-13T13:49:55.955Z,7.18
2022-10-13T13:51:29.371Z,10.05
2022-10-13T13:53:02.986Z,6.38
2022-10-13T13:54:37.778Z,5.40
2022-10-13T13:56:14.099Z,12.05
2022-10-13T13:57:47.485Z,5.65
2022-10-13T13:59:20.707Z,7.38
2022-10-13T14:01:00.270Z,5.65
2022-10-13T14:02:33.501Z,6.65
2022-10-13T14:04:06.670Z,6.93
2022-10-13T14:05:40.470Z,6.13
2022-10-13T14:07:15.272Z,5.05
2022-10-13T14:08:48.830Z,6.00
2022-10-13T14:10:23.525Z,8.30
2022-10-13T14:11:56.818Z,5.15
2022-10-13T14:13:30.152Z,5.60
2022-10-13T14:15:03.539Z,4.32
2022-10-13T14:16:36.751Z,31.38
2022-10-13T14:18:13.484Z,18.45
2022-10-13T14:19:46.850Z,12.32
2022-10-13T14:21:20.082Z,9.10
2022-10-13T14:22:53.731Z,8.32
2022-10-13T14:24:26.987Z,11.52
2022-10-13T14:26:06.028Z,4.10
2022-10-13T14:27:39.255Z,4.57
2022-10-13T14:29:14.803Z,13.23
2022-10-13T14:30:48.164Z,11.30
2022-10-13T14:32:22.001Z,5.63
2022-10-13T14:33:54.708Z,7.57
2022-10-13T14:35:30.089Z,8.55
2022-10-13T14:37:03.306Z,3.75
2022-10-13T14:38:36.977Z,7.00
2022-10-13T14:40:11.353Z,4.60
2022-10-13T14:41:45.964Z,3.80
2022-10-13T14:43:19.063Z,12.65
2022-10-13T14:44:52.237Z,12.43
2022-10-13T14:46:25.883Z,7.38
2022-10-13T14:47:59.111Z,4.15
2022-10-13T14:49:33.148Z,7.90
2022-10-13T14:51:07.304Z,7.95
2022-10-13T14:52:40.572Z,7.60
2022-10-13T14:54:13.872Z,4.50
2022-10-13T14:55:47.058Z,5.78
2022-10-13T14:57:22.586Z,6.68
2022-10-13T14:58:59.331Z,11.20
2022-10-13T15:00:38.527Z,7.85
2022-10-13T15:02:16.151Z,11.25
2022-10-13T15:03:59.069Z,8.73
2022-10-13T15:05:32.399Z,8.70
2022-10-13T15:07:05.891Z,11.00
2022-10-13T15:08:40.191Z,13.00
2022-10-13T15:10:13.572Z,7.18
2022-10-13T15:11:47.914Z,7.43
2022-10-13T15:13:22.376Z,11.00
2022-10-13T15:14:55.879Z,38.30
2022-10-13T15:16:32.681Z,6.30
2022-10-13T15:18:06.468Z,10.00
2022-10-13T15:19:39.615Z,6.45
2022-10-13T15:21:14.558Z,7.13
2022-10-13T15:22:48.657Z,6.65
2022-10-13T15:24:22.664Z,10.77
2022-10-13T15:26:00.937Z,4.82
2022-10-13T15:27:40.748Z,4.22
2022-10-13T15:29:16.729Z,6.53
2022-10-13T15:30:50.021Z,7.13
2022-10-13T15:32:23.557Z,10.55
2022-10-13T15:34:02.289Z,12.77
2022-10-13T15:35:35.615Z,15.18
2022-10-13T15:37:09.037Z,18.58
2022-10-13T15:38:42.507Z,13.05
2022-10-13T15:40:15.934Z,10.35
2022-10-13T15:41:49.330Z,8.93
2022-10-13T15:43:22.518Z,10.90
2022-10-13T15:45:09.341Z,10.32
2022-10-13T15:47:05.497Z,6.47
2022-10-13T15:48:38.689Z,20.35
2022-10-13T15:50:12.155Z,24.33
2022-10-13T15:51:45.283Z,15.48
2022-10-13T15:53:18.809Z,11.48
2022-10-13T15:54:52.075Z,13.05
2022-10-13T15:56:25.280Z,12.02
2022-10-13T15:57:58.725Z,194.38
2022-10-13T15:59:32.115Z,153.32
2022-10-13T16:01:10.671Z,40.72
2022-10-13T16:02:44.979Z,17.52
2022-10-13T16:04:18.136Z,9.63
2022-10-13T16:05:51.343Z,13.68
2022-10-13T16:07:24.962Z,7.75
2022-10-13T16:08:58.226Z,12.05
2022-10-13T16:10:31.384Z,23.67
2022-10-13T16:12:04.774Z,13.20
2022-10-13T16:13:38.412Z,10.05
2022-10-13T16:15:12.532Z,6.60
2022-10-13T16:16:47.122Z,13.80
2022-10-13T16:18:20.346Z,5.93
2022-10-13T16:19:53.744Z,9.73
2022-10-13T16:21:27.544Z,14.95
2022-10-13T16:23:00.811Z,13.38
2022-10-13T16:24:34.266Z,18.50
2022-10-13T16:26:08.154Z,7.97
2022-10-13T16:27:44.243Z,9.55
2022-10-13T16:29:17.926Z,17.85
2022-10-13T16:30:51.153Z,10.07
2022-10-13T16:32:25.975Z,11.77
2022-10-13T16:34:00.261Z,8.77
2022-10-13T16:35:34.355Z,11.32
2022-10-13T16:37:07.506Z,10.73
2022-10-13T16:38:41.628Z,13.52
2022-10-13T16:40:14.886Z,13.45
2022-10-13T16:41:48.340Z,65.72
2022-10-13T16:43:22.107Z,20.77
2022-10-13T16:45:00.012Z,15.25
2022-10-13T16:46:34.238Z,9.60
2022-10-13T16:48:08.712Z,7.78
2022-10-13T16:49:41.861Z,7.53
2022-10-13T16:51:18.876Z,9.95
2022-10-13T16:52:52.032Z,5.90
2022-10-13T16:54:26.840Z,9.52
2022-10-13T16:55:59.964Z,6.00
2022-10-13T16:57:33.913Z,5.80
2022-10-13T16:59:08.290Z,14.15
2022-10-13T17:00:41.828Z,6.50
2022-10-13T17:02:16.009Z,14.38
2022-10-13T17:03:52.547Z,6.68
2022-10-13T17:05:26.916Z,9.35
2022-10-13T17:07:00.169Z,16.50
2022-10-13T17:08:33.958Z,39.53
2022-10-13T17:10:10.291Z,25.27
2022-10-13T17:11:43.868Z,43.40
2022-10-13T17:13:17.138Z,80.40
2022-10-13T17:14:50.301Z,80.22
2022-10-13T17:16:24.006Z,81.22
2022-10-13T17:17:57.596Z,56.38
2022-10-13T17:19:32.217Z,55.58
2022-10-13T17:21:09.111Z,29.80
2022-10-13T17:22:42.597Z,43.10
2022-10-13T17:24:17.939Z,32.03
2022-10-13T17:25:51.844Z,19.70
2022-10-13T17:27:25.362Z,15.80
2022-10-13T17:28:59.271Z,14.43
2022-10-13T17:30:33.255Z,16.35
2022-10-13T17:32:06.740Z,76.22
2022-10-13T17:33:41.323Z,73.68
2022-10-13T17:35:18.306Z,24.10
2022-10-13T17:36:51.707Z,20.45
2022-10-13T17:38:24.876Z,20.90
2022-10-13T17:39:58.170Z,23.60
2022-10-13T17:41:31.876Z,15.85
2022-10-13T17:43:05.361Z,30.20
2022-10-13T17:44:38.692Z,29.02
2022-10-13T17:46:34.990Z,27.98
2022-10-13T17:48:06.955Z,30.00
2022-10-13T17:49:42.330Z,35.08
2022-10-13T17:51:21.199Z,30.05
2022-10-13T17:52:55.723Z,105.00
2022-10-13T17:54:29.279Z,26.65
2022-10-13T17:56:02.833Z,61.13
2022-10-13T17:57:36.114Z,24.08
2022-10-13T17:59:11.616Z,37.50
2022-10-13T18:01:13.856Z,35.45
2022-10-13T18:02:38.217Z,18.55
2022-10-13T18:04:14.028Z,22.70
2022-10-13T18:05:47.691Z,28.23
2022-10-13T18:07:22.721Z,20.40
2022-10-13T18:08:56.478Z,28.67
2022-10-13T18:10:40.841Z,37.83
2022-10-13T18:12:23.184Z,29.63
2022-10-13T18:13:56.414Z,25.98
2022-10-13T18:15:28.836Z,16.98
2022-10-13T18:17:02.073Z,24.75
2022-10-13T18:18:35.814Z,12.98
2022-10-13T18:20:09.763Z,16.88
2022-10-13T18:21:44.393Z,14.00
2022-10-13T18:23:18.956Z,23.35
2022-10-13T18:24:56.927Z,19.15
2022-10-13T18:26:35.027Z,19.40
2022-10-13T18:28:08.187Z,16.00
2022-10-13T18:29:41.439Z,18.20
2022-10-13T18:31:17.198Z,20.50
2022-10-13T18:32:50.390Z,21.40
2022-10-13T18:34:24.752Z,14.73
2022-10-13T18:35:58.050Z,20.48
2022-10-13T18:37:31.443Z,48.53
2022-10-13T18:39:07.950Z,43.58
2022-10-13T18:40:41.097Z,29.15
2022-10-13T18:42:14.274Z,31.27
2022-10-13T18:43:49.450Z,45.92
2022-10-13T18:45:24.352Z,40.40
2022-10-13T18:46:57.529Z,35.58
2022-10-13T18:48:30.857Z,27.23
2022-10-13T18:50:05.188Z,20.63
2022-10-13T18:51:39.366Z,20.35
2022-10-13T18:53:12.507Z,27.15
2022-10-13T18:54:47.174Z,15.85
2022-10-13T18:56:22.319Z,19.05
2022-10-13T18:57:55.811Z,14.77
2022-10-13T18:59:29.148Z,21.38
2022-10-13T19:01:03.538Z,17.83
2022-10-13T19:02:37.094Z,20.23
2022-10-13T19:04:12.751Z,17.40
2022-10-13T19:05:46.008Z,23.33
2022-10-13T19:07:19.559Z,43.83
2022-10-13T19:08:55.258Z,55.35
2022-10-13T19:10:30.148Z,45.95
2022-10-13T19:12:03.370Z,43.15
2022-10-13T19:13:36.543Z,33.63
2022-10-13T19:15:10.457Z,19.95
2022-10-13T19:16:45.299Z,20.10
2022-10-13T19:18:18.523Z,29.40
2022-10-13T19:19:52.204Z,27.55
2022-10-13T19:21:26.335Z,21.95
2022-10-13T19:23:00.064Z,20.73
2022-10-13T19:24:33.356Z,22.50
2022-10-13T19:26:14.786Z,31.38
2022-10-13T19:27:48.768Z,19.80
2022-10-13T19:29:21.923Z,11.50
2022-10-13T19:30:55.092Z,26.83
2022-10-13T19:32:28.205Z,27.85
2022-10-13T19:34:06.302Z,29.10
2022-10-13T19:35:43.261Z,18.55
2022-10-13T19:37:17.140Z,22.83
2022-10-13T19:38:51.024Z,30.35
2022-10-13T19:40:24.490Z,24.08
2022-10-13T19:41:59.228Z,24.40
2022-10-13T19:43:32.689Z,24.63
2022-10-13T19:45:07.794Z,17.05
2022-10-13T19:46:43.563Z,11.75
2022-10-13T19:48:17.331Z,11.25
2022-10-13T19:49:50.553Z,11.13
2022-10-13T19:51:23.865Z,12.88
2022-10-13T19:52:57.770Z,14.57
2022-10-13T19:54:33.915Z,28.38
2022-10-13T19:56:08.915Z,33.42
2022-10-13T19:57:43.525Z,31.15
2022-10-13T19:59:17.807Z,34.63
2022-10-13T20:00:51.208Z,29.95
2022-10-13T20:02:24.412Z,26.38
2022-10-13T20:03:57.764Z,21.92
2022-10-13T20:05:31.484Z,18.20
2022-10-13T20:07:04.976Z,16.20
2022-10-13T20:08:38.295Z,5.25
2022-10-13T20:10:11.804Z,15.00
2022-10-13T20:11:46.480Z,6.00
2022-10-13T20:13:21.066Z,12.75
2022-10-13T20:14:54.264Z,9.02
2022-10-13T20:16:27.689Z,7.20
2022-10-13T20:18:01.117Z,11.30
2022-10-13T20:19:36.732Z,14.32
2022-10-13T20:21:12.013Z,40.42
2022-10-13T20:22:45.302Z,53.75
2022-10-13T20:24:19.161Z,26.00
2022-10-13T20:25:51.396Z,33.38
2022-10-13T20:27:24.738Z,16.98
2022-10-13T20:28:59.449Z,11.57
2022-10-13T20:30:32.954Z,7.65
2022-10-13T20:32:06.431Z,9.23
2022-10-13T20:33:42.560Z,8.52
2022-10-13T20:35:16.019Z,7.50
2022-10-13T20:36:51.035Z,9.02
2022-10-13T20:38:24.235Z,10.77
2022-10-13T20:39:58.181Z,8.90
2022-10-13T20:41:33.293Z,7.47
2022-10-13T20:43:06.588Z,7.82
2022-10-13T20:44:41.523Z,13.13
2022-10-13T20:46:16.274Z,7.72
2022-10-13T20:47:50.353Z,6.53
2022-10-13T20:49:23.601Z,7.60
2022-10-13T20:50:59.771Z,5.88
2022-10-13T20:52:33.396Z,6.15
2022-10-13T20:54:07.023Z,5.32